createdAt,value
2018-12-23T00:00:43.909Z,93.10
2018-12-23T00:03:11.550Z,93.50
2018-12-23T00:05:39.039Z,93.80
2018-12-23T00:08:06.493Z,94.20
2018-12-23T00:10:33.942Z,94.40
2018-12-23T00:13:01.380Z,94.80
2018-12-23T00:15:28.869Z,95.10
2018-12-23T00:17:56.312Z,95.50
2018-12-23T00:20:23.797Z,95.50
2018-12-23T00:22:51.231Z,95.50
2018-12-23T00:25:18.730Z,95.60
2018-12-23T00:27:46.169Z,95.60
2018-12-23T00:30:13.649Z,95.80
2018-12-23T00:32:41.089Z,96.00
2018-12-23T00:35:08.574Z,96.10
2018-12-23T00:37:36.012Z,96.50
2018-12-23T00:40:04.939Z,96.10
2018-12-23T00:42:32.394Z,96.30
2018-12-23T00:44:59.874Z,96.80
2018-12-23T00:47:27.311Z,97.20
2018-12-23T00:49:54.755Z,97.80
2018-12-23T00:52:22.191Z,97.80
2018-12-23T00:54:49.632Z,97.90
2018-12-23T00:57:19.272Z,98.00
2018-12-23T00:59:46.618Z,98.30
2018-12-23T01:02:14.057Z,98.20
2018-12-23T01:04:41.502Z,98.20
2018-12-23T01:07:08.944Z,98.20
2018-12-23T01:09:36.406Z,98.30
2018-12-23T01:12:03.929Z,98.40
2018-12-23T01:14:31.371Z,98.40
2018-12-23T01:16:58.809Z,98.50
2018-12-23T01:19:26.252Z,98.60
2018-12-23T01:21:53.698Z,98.60
2018-12-23T01:24:21.146Z,98.70
2018-12-23T01:26:48.624Z,98.70
2018-12-23T01:29:16.076Z,98.80
2018-12-23T01:31:43.562Z,98.80
2018-12-23T01:34:11.045Z,98.90
2018-12-23T01:36:38.529Z,98.80
2018-12-23T01:39:06.024Z,98.90
2018-12-23T01:41:33.502Z,98.90
2018-12-23T01:44:00.986Z,98.90
2018-12-23T01:46:28.474Z,98.90
2018-12-23T01:48:55.913Z,98.90
2018-12-23T01:51:23.366Z,98.90
2018-12-23T01:53:50.844Z,98.90
2018-12-23T01:56:18.332Z,98.80
2018-12-23T01:58:45.774Z,98.80
2018-12-23T02:01:13.218Z,98.60
2018-12-23T02:03:40.661Z,98.50
2018-12-23T02:06:08.140Z,98.40
2018-12-23T02:08:35.649Z,98.30
2018-12-23T02:11:03.162Z,98.30
2018-12-23T02:13:30.601Z,98.20
2018-12-23T02:15:58.129Z,98.20
2018-12-23T02:18:25.578Z,98.10
2018-12-23T02:20:53.028Z,97.80
2018-12-23T02:23:20.466Z,97.90
2018-12-23T02:25:47.957Z,97.80
2018-12-23T02:28:15.391Z,97.70
2018-12-23T02:30:42.832Z,97.70
2018-12-23T02:33:10.270Z,97.50
2018-12-23T02:35:37.749Z,97.30
2018-12-23T02:38:05.184Z,97.40
2018-12-23T02:40:32.685Z,97.50
2018-12-23T02:43:00.167Z,97.50
2018-12-23T02:45:27.653Z,97.50
2018-12-23T02:47:55.092Z,97.40
2018-12-23T02:50:22.541Z,97.60
2018-12-23T02:52:50.026Z,97.30
2018-12-23T02:55:17.472Z,97.20
2018-12-23T02:57:44.918Z,97.20
2018-12-23T03:00:12.405Z,97.10
2018-12-23T03:02:39.844Z,97.10
2018-12-23T03:05:07.373Z,97.10
2018-12-23T03:07:34.819Z,97.20
2018-12-23T03:10:02.304Z,97.20
2018-12-23T03:12:29.785Z,97.20
2018-12-23T03:14:57.232Z,97.20
2018-12-23T03:17:24.678Z,97.30
2018-12-23T03:19:52.139Z,97.40
2018-12-23T03:22:19.705Z,97.40
2018-12-23T03:24:47.245Z,97.40
2018-12-23T03:27:14.693Z,97.40
2018-12-23T03:29:42.140Z,97.40
2018-12-23T03:32:09.623Z,97.30
2018-12-23T03:34:37.180Z,97.30
2018-12-23T03:37:04.624Z,97.00
2018-12-23T03:39:32.070Z,96.90
2018-12-23T03:41:59.517Z,96.90
2018-12-23T03:44:26.968Z,96.90
2018-12-23T03:46:54.413Z,96.90
2018-12-23T03:49:21.853Z,96.70
2018-12-23T03:51:49.313Z,96.70
2018-12-23T03:54:16.872Z,96.70
2018-12-23T03:56:44.330Z,96.60
2018-12-23T03:59:11.773Z,96.40
2018-12-23T04:01:39.221Z,96.40
2018-12-23T04:04:06.667Z,96.60
2018-12-23T04:06:34.109Z,96.40
2018-12-23T04:09:01.585Z,96.20
2018-12-23T04:11:29.031Z,95.90
2018-12-23T04:13:56.477Z,96.00
2018-12-23T04:16:23.934Z,96.00
2018-12-23T04:18:51.373Z,96.30
2018-12-23T04:21:18.829Z,96.40
2018-12-23T04:23:46.265Z,96.30
2018-12-23T04:26:13.712Z,96.30
2018-12-23T04:28:41.244Z,96.20
2018-12-23T04:31:08.697Z,96.10
2018-12-23T04:33:36.147Z,96.20
2018-12-23T04:36:03.597Z,96.20
2018-12-23T04:38:31.041Z,96.10
2018-12-23T04:40:58.486Z,96.20
2018-12-23T04:43:25.944Z,96.20
2018-12-23T04:45:53.481Z,96.00
2018-12-23T04:48:20.912Z,95.90
2018-12-23T04:50:48.360Z,95.90
2018-12-23T04:53:15.813Z,96.10
2018-12-23T04:55:43.265Z,96.20
2018-12-23T04:58:10.705Z,95.90
2018-12-23T05:00:38.157Z,96.10
2018-12-23T05:03:05.714Z,96.30
2018-12-23T05:05:33.267Z,96.40
2018-12-23T05:08:00.712Z,96.40
2018-12-23T05:10:28.195Z,96.50
2018-12-23T05:12:55.653Z,96.50
2018-12-23T05:15:23.172Z,96.60
2018-12-23T05:17:50.605Z,96.40
2018-12-23T05:20:18.052Z,96.30
2018-12-23T05:22:45.491Z,96.30
2018-12-23T05:25:12.970Z,96.30
2018-12-23T05:27:40.442Z,96.20
2018-12-23T05:30:07.876Z,96.20
2018-12-23T05:32:35.350Z,96.20
2018-12-23T05:35:02.818Z,96.30
2018-12-23T05:37:30.296Z,96.40
2018-12-23T05:39:57.762Z,96.30
2018-12-23T05:42:25.206Z,96.50
2018-12-23T05:44:52.658Z,96.20
2018-12-23T05:47:20.193Z,96.20
2018-12-23T05:49:47.640Z,96.20
2018-12-23T05:52:15.081Z,96.20
2018-12-23T05:54:42.533Z,96.20
2018-12-23T05:57:09.985Z,96.20
2018-12-23T05:59:37.429Z,96.10
2018-12-23T06:02:04.920Z,96.10
2018-12-23T06:04:32.353Z,96.10
2018-12-23T06:07:01.062Z,96.20
2018-12-23T06:09:28.897Z,96.20
2018-12-23T06:11:56.344Z,96.20
2018-12-23T06:14:23.790Z,96.20
2018-12-23T06:16:51.241Z,96.20
2018-12-23T06:19:18.717Z,96.30
2018-12-23T06:21:46.189Z,96.40
2018-12-23T06:24:13.658Z,96.50
2018-12-23T06:26:41.105Z,96.40
2018-12-23T06:29:08.578Z,96.40
2018-12-23T06:31:36.022Z,96.40
2018-12-23T06:34:03.467Z,96.40
2018-12-23T06:36:30.959Z,96.50
2018-12-23T06:38:58.384Z,96.50
2018-12-23T06:41:25.836Z,96.60
2018-12-23T06:43:53.284Z,96.70
2018-12-23T06:46:20.765Z,96.80
2018-12-23T06:48:48.214Z,96.80
2018-12-23T06:51:15.992Z,96.80
2018-12-23T06:53:43.437Z,96.90
2018-12-23T06:56:10.954Z,96.90
2018-12-23T06:58:38.389Z,96.90
2018-12-23T07:01:05.834Z,97.00
2018-12-23T07:03:33.276Z,97.20
2018-12-23T07:06:00.730Z,97.20
2018-12-23T07:08:28.197Z,97.20
2018-12-23T07:10:55.646Z,97.30
2018-12-23T07:13:23.090Z,97.30
2018-12-23T07:15:50.542Z,97.30
2018-12-23T07:18:17.980Z,97.30
2018-12-23T07:20:45.701Z,97.40
2018-12-23T07:23:13.178Z,97.30
2018-12-23T07:25:40.613Z,97.30
2018-12-23T07:28:08.056Z,97.40
2018-12-23T07:30:35.527Z,97.40
2018-12-23T07:33:02.973Z,97.30
2018-12-23T07:35:30.448Z,97.30
2018-12-23T07:37:57.889Z,97.30
2018-12-23T07:40:25.325Z,97.20
2018-12-23T07:42:52.801Z,97.40
2018-12-23T07:45:20.238Z,97.50
2018-12-23T07:47:47.713Z,97.50
2018-12-23T07:50:15.157Z,97.30
2018-12-23T07:52:42.608Z,97.30
2018-12-23T07:55:10.079Z,97.40
2018-12-23T07:57:37.522Z,97.20
2018-12-23T08:00:05.040Z,97.40
2018-12-23T08:02:32.483Z,97.20
2018-12-23T08:04:59.925Z,97.20
2018-12-23T08:07:35.958Z,97.10
2018-12-23T08:09:56.953Z,97.10
2018-12-23T08:12:24.497Z,97.10
2018-12-23T08:14:51.944Z,97.00
2018-12-23T08:17:19.418Z,96.80
2018-12-23T08:19:46.849Z,96.70
2018-12-23T08:22:14.290Z,96.50
2018-12-23T08:24:41.763Z,96.50
2018-12-23T08:27:09.201Z,96.40
2018-12-23T08:29:36.841Z,96.40
2018-12-23T08:32:04.289Z,96.40
2018-12-23T08:34:31.760Z,96.40
2018-12-23T08:36:59.202Z,96.30
2018-12-23T08:39:26.648Z,96.40
2018-12-23T08:41:54.110Z,96.40
2018-12-23T08:44:21.558Z,96.30
2018-12-23T08:46:49.010Z,96.20
2018-12-23T08:49:16.457Z,96.10
2018-12-23T08:51:45.842Z,96.00
2018-12-23T08:54:13.378Z,95.90
2018-12-23T08:56:40.865Z,95.60
2018-12-23T08:59:08.305Z,95.40
2018-12-23T09:01:35.761Z,95.30
2018-12-23T09:04:03.214Z,95.30
2018-12-23T09:06:30.670Z,95.30
2018-12-23T09:08:58.118Z,95.30
2018-12-23T09:11:25.606Z,94.90
2018-12-23T09:13:53.098Z,95.00
2018-12-23T09:16:20.543Z,95.00
2018-12-23T09:18:48.023Z,95.00
2018-12-23T09:21:15.476Z,94.60
2018-12-23T09:23:42.935Z,94.20
2018-12-23T09:26:10.494Z,93.80
2018-12-23T09:28:39.325Z,93.70
2018-12-23T09:31:06.797Z,93.40
2018-12-23T09:33:34.335Z,93.50
2018-12-23T09:36:01.806Z,93.20
2018-12-23T09:38:29.283Z,92.70
2018-12-23T09:40:56.803Z,92.10
2018-12-23T09:43:24.328Z,92.30
2018-12-23T09:45:51.764Z,91.60
2018-12-23T09:48:19.295Z,91.50
2018-12-23T09:50:46.747Z,91.40
2018-12-23T09:53:14.232Z,91.20
2018-12-23T09:55:41.727Z,90.70
2018-12-23T09:58:09.244Z,90.40
2018-12-23T10:00:36.690Z,89.50
2018-12-23T10:03:04.160Z,88.90
2018-12-23T10:05:31.615Z,89.50
2018-12-23T10:07:59.074Z,89.20
2018-12-23T10:10:28.565Z,89.00
2018-12-23T10:12:56.085Z,88.10
2018-12-23T10:15:23.554Z,87.30
2018-12-23T10:17:50.999Z,86.70
2018-12-23T10:20:18.450Z,86.60
2018-12-23T10:22:45.902Z,85.80
2018-12-23T10:25:13.346Z,85.30
2018-12-23T10:27:40.800Z,84.10
2018-12-23T10:30:08.281Z,84.50
2018-12-23T10:32:35.763Z,83.90
2018-12-23T10:35:03.310Z,84.00
2018-12-23T10:37:30.771Z,84.00
2018-12-23T10:39:58.270Z,82.80
2018-12-23T10:42:25.722Z,82.20
2018-12-23T10:44:53.252Z,82.20
2018-12-23T10:47:20.778Z,82.50
2018-12-23T10:49:48.265Z,81.80
2018-12-23T10:52:15.718Z,82.40
2018-12-23T10:54:43.227Z,82.20
2018-12-23T10:57:10.713Z,82.90
2018-12-23T10:59:38.180Z,82.80
2018-12-23T11:02:13.420Z,82.50
2018-12-23T11:04:35.406Z,81.80
2018-12-23T11:07:02.932Z,81.00
2018-12-23T11:09:30.375Z,80.50
2018-12-23T11:11:57.837Z,80.70
2018-12-23T11:14:25.296Z,80.20
2018-12-23T11:16:52.850Z,80.20
2018-12-23T11:19:20.312Z,80.90
2018-12-23T11:21:47.754Z,80.40
2018-12-23T11:24:15.217Z,79.90
2018-12-23T11:26:42.660Z,79.60
2018-12-23T11:29:10.115Z,79.10
2018-12-23T11:31:37.557Z,78.90
2018-12-23T11:34:05.041Z,78.20
2018-12-23T11:36:32.490Z,77.60
2018-12-23T11:38:59.948Z,77.60
2018-12-23T11:41:27.394Z,77.20
2018-12-23T11:43:54.870Z,75.90
2018-12-23T11:46:22.357Z,76.60
2018-12-23T11:48:49.806Z,76.30
2018-12-23T11:51:17.249Z,75.00
2018-12-23T11:53:44.737Z,76.30
2018-12-23T11:56:12.182Z,76.30
2018-12-23T11:58:39.695Z,76.80
2018-12-23T12:01:07.129Z,77.10
2018-12-23T12:03:34.578Z,76.90
2018-12-23T12:06:02.035Z,76.80
2018-12-23T12:08:29.542Z,76.30
2018-12-23T12:10:57.062Z,77.20
2018-12-23T12:13:24.513Z,77.80
2018-12-23T12:15:51.961Z,77.20
2018-12-23T12:18:19.569Z,78.10
2018-12-23T12:20:47.009Z,77.50
2018-12-23T12:23:14.520Z,77.90
2018-12-23T12:25:42.015Z,77.50
2018-12-23T12:28:09.465Z,77.60
2018-12-23T12:30:37.058Z,78.50
2018-12-23T12:33:04.550Z,78.80
2018-12-23T12:35:32.032Z,78.60
2018-12-23T12:37:59.498Z,79.00
2018-12-23T12:40:26.962Z,79.60
2018-12-23T12:42:54.392Z,79.20
2018-12-23T12:45:21.845Z,79.10
2018-12-23T12:47:49.292Z,79.10
2018-12-23T12:50:16.731Z,79.10
2018-12-23T12:52:44.178Z,79.40
2018-12-23T12:55:11.663Z,79.10
2018-12-23T12:57:39.121Z,79.00
2018-12-23T13:00:06.606Z,79.60
2018-12-23T13:02:34.073Z,78.90
2018-12-23T13:05:01.519Z,77.90
2018-12-23T13:07:28.985Z,77.90
2018-12-23T13:10:30.746Z,77.60
2018-12-23T13:12:59.575Z,76.80
2018-12-23T13:15:28.138Z,76.30
2018-12-23T13:17:56.659Z,77.80
2018-12-23T13:20:25.259Z,77.40
2018-12-23T13:22:53.780Z,77.90
2018-12-23T13:25:22.350Z,76.30
2018-12-23T13:27:50.860Z,75.70
2018-12-23T13:30:19.666Z,75.90
2018-12-23T13:32:48.249Z,75.10
2018-12-23T13:35:16.801Z,76.00
2018-12-23T13:37:45.310Z,76.40
2018-12-23T13:40:39.183Z,76.10
2018-12-23T13:43:13.411Z,76.80
2018-12-23T13:46:11.759Z,77.30
2018-12-23T13:48:45.805Z,78.50
2018-12-23T13:51:32.186Z,76.00
2018-12-23T13:54:20.024Z,76.90
2018-12-23T13:57:10.542Z,78.80
2018-12-23T13:59:58.752Z,80.40
2018-12-23T14:02:33.047Z,82.70
2018-12-23T14:05:13.594Z,85.60
2018-12-23T14:07:50.811Z,87.10
2018-12-23T14:10:34.341Z,88.90
2018-12-23T14:13:03.136Z,90.10
2018-12-23T14:15:31.907Z,90.60
2018-12-23T14:18:00.461Z,91.60
2018-12-23T14:20:29.209Z,92.40
2018-12-23T14:22:57.767Z,93.30
2018-12-23T14:25:26.296Z,94.10
2018-12-23T14:27:54.851Z,94.40
2018-12-23T14:30:23.388Z,94.90
2018-12-23T14:32:51.922Z,95.30
2018-12-23T14:35:20.484Z,95.50
2018-12-23T14:37:49.007Z,95.90
2018-12-23T14:40:17.534Z,96.30
2018-12-23T14:42:46.050Z,96.50
2018-12-23T14:45:14.594Z,96.80
2018-12-23T14:47:43.116Z,97.00
2018-12-23T14:50:11.639Z,97.20
2018-12-23T14:52:40.465Z,97.30
2018-12-23T14:55:08.982Z,97.50
2018-12-23T14:57:37.527Z,97.80
2018-12-23T15:00:09.190Z,97.90
2018-12-23T15:02:37.791Z,97.90
2018-12-23T15:05:06.868Z,98.00
2018-12-23T15:07:35.751Z,98.10
2018-12-23T15:10:06.242Z,98.10
2018-12-23T15:12:34.814Z,98.20
2018-12-23T15:15:03.353Z,98.30
2018-12-23T15:17:31.922Z,98.30
2018-12-23T15:20:00.444Z,98.30
2018-12-23T15:22:28.983Z,98.40
2018-12-23T15:24:57.500Z,98.50
2018-12-23T15:27:26.059Z,98.60
2018-12-23T15:29:54.599Z,98.70
2018-12-23T15:32:23.229Z,98.80
2018-12-23T15:34:51.817Z,98.80
2018-12-23T15:37:20.332Z,98.80
2018-12-23T15:39:48.849Z,98.80
2018-12-23T15:42:17.640Z,98.80
2018-12-23T15:44:46.417Z,98.80
2018-12-23T15:47:15.212Z,98.80
2018-12-23T15:49:43.796Z,98.90
2018-12-23T15:52:12.384Z,98.90
2018-12-23T15:54:46.249Z,98.90
2018-12-23T15:57:11.260Z,98.90
2018-12-23T15:59:39.775Z,98.90
2018-12-23T16:02:08.342Z,99.00
2018-12-23T16:04:36.870Z,99.00
2018-12-23T16:07:05.406Z,99.00
2018-12-23T16:09:34.191Z,99.00
2018-12-23T16:12:02.754Z,99.00
2018-12-23T16:14:31.306Z,99.00
2018-12-23T16:16:59.850Z,99.00
2018-12-23T16:19:28.407Z,99.00
2018-12-23T16:21:56.944Z,99.00
2018-12-23T16:24:25.490Z,99.00
2018-12-23T16:26:53.982Z,99.00
2018-12-23T16:29:22.526Z,99.10
2018-12-23T16:31:54.144Z,99.10
2018-12-23T16:34:22.676Z,99.10
2018-12-23T16:36:51.218Z,99.10
2018-12-23T16:39:19.755Z,99.10
2018-12-23T16:41:48.276Z,99.10
2018-12-23T16:44:17.038Z,99.10
2018-12-23T16:46:45.606Z,99.10
2018-12-23T16:49:14.160Z,99.20
2018-12-23T16:51:44.600Z,99.20
2018-12-23T16:54:12.967Z,99.20
2018-12-23T16:56:41.544Z,99.20
2018-12-23T16:59:10.085Z,99.30
2018-12-23T17:01:38.674Z,99.30
2018-12-23T17:04:07.248Z,99.30
2018-12-23T17:06:35.893Z,99.30
2018-12-23T17:09:06.479Z,99.30
2018-12-23T17:11:35.032Z,99.30
2018-12-23T17:14:03.560Z,99.40
2018-12-23T17:16:32.084Z,99.40
2018-12-23T17:19:00.924Z,99.40
2018-12-23T17:21:29.451Z,99.40
2018-12-23T17:23:57.979Z,99.40
2018-12-23T17:26:26.502Z,99.50
2018-12-23T17:28:55.064Z,99.50
2018-12-23T17:31:23.591Z,99.50
2018-12-23T17:33:52.132Z,99.50
2018-12-23T17:36:20.685Z,99.50
2018-12-23T17:38:49.228Z,99.50
2018-12-23T17:41:17.753Z,99.50
2018-12-23T17:43:46.291Z,99.50
2018-12-23T17:46:14.811Z,99.50
2018-12-23T17:48:43.331Z,99.50
2018-12-23T17:51:11.878Z,99.50
2018-12-23T17:53:40.433Z,99.50
2018-12-23T17:56:08.957Z,99.50
2018-12-23T17:58:37.751Z,99.50
2018-12-23T18:01:06.283Z,99.50
2018-12-23T18:03:34.802Z,99.50
2018-12-23T18:06:03.327Z,99.50
2018-12-23T18:08:31.842Z,99.50
2018-12-23T18:11:00.416Z,99.50
2018-12-23T18:13:29.061Z,99.50
2018-12-23T18:15:57.731Z,99.50
2018-12-23T18:18:26.520Z,99.50
2018-12-23T18:20:55.053Z,99.50
2018-12-23T18:23:23.583Z,99.50
2018-12-23T18:25:52.111Z,99.50
2018-12-23T18:28:20.708Z,99.50
2018-12-23T18:30:49.247Z,99.50
2018-12-23T18:33:17.880Z,99.50
2018-12-23T18:35:46.505Z,99.50
2018-12-23T18:38:15.057Z,99.50
2018-12-23T18:40:44.827Z,99.50
2018-12-23T18:43:13.381Z,99.50
2018-12-23T18:45:41.945Z,99.50
2018-12-23T18:48:10.460Z,99.40
2018-12-23T18:50:39.121Z,99.50
2018-12-23T18:53:07.650Z,99.40
2018-12-23T18:55:36.368Z,99.40
2018-12-23T18:58:04.903Z,99.40
2018-12-23T19:00:33.451Z,99.40
2018-12-23T19:03:02.149Z,99.40
2018-12-23T19:05:30.716Z,99.40
2018-12-23T19:07:59.486Z,99.40
2018-12-23T19:10:41.718Z,99.40
2018-12-23T19:13:26.848Z,99.40
2018-12-23T19:16:15.089Z,99.30
2018-12-23T19:18:55.314Z,99.30
2018-12-23T19:21:39.042Z,99.30
2018-12-23T19:24:16.703Z,99.30
2018-12-23T19:26:57.363Z,99.30
2018-12-23T19:29:31.779Z,99.30
2018-12-23T19:32:21.941Z,99.30
2018-12-23T19:35:12.961Z,99.30
2018-12-23T19:37:50.372Z,99.30
2018-12-23T19:40:50.691Z,99.30
2018-12-23T19:43:34.273Z,99.20
2018-12-23T19:46:08.550Z,99.00
2018-12-23T19:48:40.167Z,98.80
2018-12-23T19:51:28.307Z,98.80
2018-12-23T19:54:02.499Z,98.70
2018-12-23T19:56:45.818Z,98.50
2018-12-23T19:59:26.074Z,98.40
2018-12-23T20:02:00.583Z,98.20
2018-12-23T20:04:37.783Z,98.10
2018-12-23T20:07:20.779Z,99.90
2018-12-23T20:10:24.338Z,99.90
2018-12-23T20:12:55.974Z,99.90
2018-12-23T20:15:27.555Z,99.90
2018-12-23T20:18:04.931Z,97.00
2018-12-23T20:21:04.815Z,96.30
2018-12-23T20:23:57.497Z,96.20
2018-12-23T20:26:40.538Z,96.40
2018-12-23T20:29:17.840Z,96.40
2018-12-23T20:32:07.219Z,96.30
2018-12-23T20:35:11.658Z,96.30
2018-12-23T20:37:49.555Z,96.20
2018-12-23T20:40:33.427Z,95.90
2018-12-23T20:43:22.326Z,95.80
2018-12-23T20:46:02.258Z,95.80
2018-12-23T20:49:01.179Z,95.80
2018-12-23T20:51:50.370Z,95.60
2018-12-23T20:54:27.518Z,95.50
2018-12-23T20:57:19.844Z,95.50
2018-12-23T20:59:51.687Z,95.50
2018-12-23T21:02:42.818Z,95.30
2018-12-23T21:05:20.238Z,95.20
2018-12-23T21:08:08.474Z,94.90
2018-12-23T21:10:45.990Z,94.70
2018-12-23T21:13:20.261Z,94.60
2018-12-23T21:16:17.578Z,94.70
2018-12-23T21:19:00.885Z,94.60
2018-12-23T21:21:44.665Z,94.60
2018-12-23T21:24:34.249Z,94.70
2018-12-23T21:27:23.400Z,94.70
2018-12-23T21:29:58.178Z,94.50
2018-12-23T21:32:47.862Z,94.50
2018-12-23T21:35:37.382Z,93.80
2018-12-23T21:38:17.710Z,93.90
2018-12-23T21:41:06.963Z,93.80
2018-12-23T21:44:01.115Z,93.50
2018-12-23T21:46:35.513Z,93.50
2018-12-23T21:49:16.119Z,93.20
2018-12-23T21:52:13.874Z,93.20
2018-12-23T21:55:00.858Z,93.20
2018-12-23T21:57:44.719Z,93.40
2018-12-23T22:00:19.481Z,93.50
2018-12-23T22:03:13.456Z,93.40
2018-12-23T22:06:06.177Z,93.40
2018-12-23T22:08:40.739Z,93.30
2018-12-23T22:11:12.338Z,93.50
2018-12-23T22:13:40.845Z,93.50
2018-12-23T22:16:09.398Z,93.60
2018-12-23T22:18:37.909Z,93.70
2018-12-23T22:21:06.433Z,93.60
2018-12-23T22:23:35.207Z,93.90
2018-12-23T22:26:03.770Z,93.80
2018-12-23T22:28:32.319Z,93.70
2018-12-23T22:31:00.843Z,94.00
2018-12-23T22:33:29.381Z,93.40
2018-12-23T22:35:57.900Z,93.50
2018-12-23T22:38:26.414Z,93.50
2018-12-23T22:40:55.108Z,93.70
2018-12-23T22:43:23.610Z,93.80
2018-12-23T22:45:52.389Z,93.70
2018-12-23T22:48:20.950Z,93.80
2018-12-23T22:50:49.723Z,94.00
2018-12-23T22:53:18.245Z,93.30
2018-12-23T22:55:46.763Z,93.40
2018-12-23T22:58:15.626Z,93.40
2018-12-23T23:00:44.181Z,93.20
2018-12-23T23:03:12.728Z,93.30
2018-12-23T23:05:41.263Z,93.00
2018-12-23T23:08:09.807Z,92.90
2018-12-23T23:10:38.342Z,93.00
2018-12-23T23:13:06.857Z,92.90
2018-12-23T23:15:35.373Z,92.80
2018-12-23T23:18:04.161Z,92.40
2018-12-23T23:20:32.708Z,92.40
2018-12-23T23:23:01.234Z,92.40
2018-12-23T23:25:29.749Z,92.20
2018-12-23T23:27:58.279Z,91.90
2018-12-23T23:30:27.026Z,91.60
2018-12-23T23:32:55.587Z,91.90
2018-12-23T23:35:24.104Z,91.90
2018-12-23T23:37:52.626Z,91.90
2018-12-23T23:40:21.137Z,92.00
2018-12-23T23:42:49.881Z,92.10
2018-12-23T23:45:18.433Z,91.90
2018-12-23T23:47:46.954Z,91.90
2018-12-23T23:50:15.470Z,91.80
2018-12-23T23:52:44.018Z,91.70
2018-12-23T23:55:12.526Z,91.60
2018-12-23T23:57:41.078Z,91.70
